Time;durP1;ratioP1;P1;durP2;ratioP2;P2;SDS_P1;SDS_P2;PMS_P1;PMS_P2;Temp;Humidity;BMP_temperature;BMP_pressure;BME280_temperature;BME280_humidity;BME280_pressure;Samples;Min_cycle;Max_cycle;Signal;HPM_P1;HPM_P2
2022/07/09 00:00:33;;;;;;;6.87;6.17;;;18.70;45.80;;;;;;5091393;28;20449;-47
2022/07/09 00:02:59;;;;;;;9.37;5.90;;;18.70;45.80;;;;;;5092642;28;20175;-47
2022/07/09 00:05:25;;;;;;;6.90;6.17;;;18.60;45.60;;;;;;5095261;28;20188;-43
2022/07/09 00:07:51;;;;;;;8.33;7.00;;;18.60;45.70;;;;;;5094904;28;20543;-47
2022/07/09 00:10:16;;;;;;;8.00;7.03;;;18.60;45.60;;;;;;5094907;28;20430;-45
2022/07/09 00:12:42;;;;;;;8.50;7.80;;;18.60;45.60;;;;;;5094987;28;20944;-45
2022/07/09 00:15:08;;;;;;;8.43;6.80;;;18.50;46.00;;;;;;5094782;28;20457;-44
2022/07/09 00:17:34;;;;;;;7.18;6.47;;;18.50;45.80;;;;;;5094638;28;20175;-45
2022/07/09 00:20:02;;;;;;;7.40;5.77;;;18.50;46.00;;;;;;5094632;28;20192;-45
2022/07/09 00:22:28;;;;;;;9.48;6.13;;;18.50;45.90;;;;;;5094781;28;20430;-45
2022/07/09 00:24:54;;;;;;;8.13;5.40;;;18.50;45.90;;;;;;5094686;28;20215;-47
2022/07/09 00:27:19;;;;;;;8.20;5.13;;;18.40;46.00;;;;;;5094581;28;20179;-45
2022/07/09 00:29:45;;;;;;;6.83;6.13;;;18.40;46.00;;;;;;5094854;28;20196;-45
2022/07/09 00:32:11;;;;;;;7.43;5.43;;;18.40;45.90;;;;;;5094578;28;20168;-47
2022/07/09 00:34:37;;;;;;;6.47;5.53;;;18.30;45.90;;;;;;5094507;28;20202;-45
2022/07/09 00:37:03;;;;;;;7.00;5.73;;;18.30;46.30;;;;;;5094462;28;20196;-46
2022/07/09 00:39:28;;;;;;;8.23;6.20;;;18.30;46.00;;;;;;5094323;28;20184;-44
2022/07/09 00:42:03;;;;;;;8.70;5.80;;;18.30;46.10;;;;;;5094433;28;20423;-46
2022/07/09 00:44:29;;;;;;;8.93;5.60;;;18.30;46.20;;;;;;5094280;28;20171;-47
2022/07/09 00:46:55;;;;;;;7.23;5.70;;;18.20;46.00;;;;;;5094105;28;20270;-45
2022/07/09 00:49:20;;;;;;;7.73;5.43;;;18.20;46.00;;;;;;5094198;28;20414;-45
2022/07/09 00:51:47;;;;;;;5.53;5.03;;;18.20;46.10;;;;;;5094289;28;20164;-46
2022/07/09 00:54:13;;;;;;;6.30;4.55;;;18.10;46.20;;;;;;5094323;28;20223;-44
2022/07/09 00:56:39;;;;;;;5.50;4.97;;;18.10;46.20;;;;;;5094041;28;20241;-45
2022/07/09 00:59:10;;;;;;;7.13;5.82;;;18.20;46.10;;;;;;5094115;28;20173;-45
2022/07/09 01:01:36;;;;;;;6.88;5.95;;;18.10;46.30;;;;;;5093884;28;20697;-46
2022/07/09 01:04:02;;;;;;;6.50;5.38;;;18.10;46.00;;;;;;5093962;28;20180;-45
2022/07/09 01:06:28;;;;;;;6.00;5.40;;;18.10;46.10;;;;;;5093763;28;20178;-46
2022/07/09 01:08:53;;;;;;;6.00;5.40;;;18.10;46.10;;;;;;5093848;28;20406;-45
2022/07/09 01:11:19;;;;;;;5.63;4.80;;;18.10;46.30;;;;;;5093835;28;20457;-45
2022/07/09 01:13:46;;;;;;;5.90;5.40;;;18.00;46.30;;;;;;5093787;28;20207;-44
2022/07/09 01:16:15;;;;;;;5.40;4.90;;;18.00;46.20;;;;;;5093318;28;20404;-46
2022/07/09 01:18:46;;;;;;;6.22;5.63;;;18.00;46.20;;;;;;5093717;28;20172;-46
2022/07/09 01:21:13;;;;;;;6.15;5.55;;;18.00;46.30;;;;;;5093710;28;20180;-46
2022/07/09 01:23:39;;;;;;;7.07;5.60;;;18.00;46.40;;;;;;5093848;28;20203;-45
2022/07/09 01:26:05;;;;;;;6.87;5.00;;;17.90;46.40;;;;;;5093289;28;20536;-46
2022/07/09 01:28:31;;;;;;;5.50;4.95;;;18.00;46.40;;;;;;5093734;28;20414;-45
2022/07/09 01:30:57;;;;;;;6.07;5.00;;;17.90;46.40;;;;;;5093668;28;20540;-46
2022/07/09 01:33:23;;;;;;;6.97;5.10;;;17.90;46.50;;;;;;5093484;28;20164;-47
2022/07/09 01:35:48;;;;;;;9.27;3.87;;;17.90;46.90;;;;;;5093308;28;20172;-46
2022/07/09 01:38:14;;;;;;;4.80;4.13;;;17.90;46.60;;;;;;5093244;28;20201;-47
2022/07/09 01:40:40;;;;;;;5.37;3.90;;;17.90;46.90;;;;;;5093106;28;20187;-46
2022/07/09 01:43:06;;;;;;;4.90;4.40;;;17.90;46.90;;;;;;5093541;28;20207;-45
2022/07/09 01:45:32;;;;;;;5.00;4.50;;;17.90;46.90;;;;;;5093276;28;20209;-47
2022/07/09 01:47:58;;;;;;;4.60;4.10;;;17.90;46.80;;;;;;5093406;28;20210;-45
2022/07/09 01:50:24;;;;;;;7.93;4.27;;;17.90;46.70;;;;;;5092987;28;20515;-45
2022/07/09 01:52:50;;;;;;;6.00;4.17;;;17.90;46.80;;;;;;5093011;28;20176;-45
2022/07/09 01:55:16;;;;;;;5.53;4.22;;;17.90;47.10;;;;;;5092827;28;20817;-47
2022/07/09 01:57:42;;;;;;;5.20;4.20;;;17.90;47.10;;;;;;5092737;28;20179;-45
2022/07/09 02:00:08;;;;;;;6.00;4.03;;;17.90;47.10;;;;;;5092711;28;20210;-46
2022/07/09 02:02:34;;;;;;;4.90;3.53;;;17.90;47.10;;;;;;5093071;28;20175;-45
2022/07/09 02:04:59;;;;;;;4.27;3.83;;;17.90;47.00;;;;;;5092910;28;20567;-42
2022/07/09 02:07:25;;;;;;;8.63;4.50;;;17.90;46.90;;;;;;5092538;28;20269;-42
2022/07/09 02:09:51;;;;;;;4.00;3.67;;;17.90;47.00;;;;;;5092851;28;20475;-42
2022/07/09 02:12:18;;;;;;;4.45;4.05;;;17.90;47.10;;;;;;5092898;28;20179;-41
2022/07/09 02:14:44;;;;;;;4.47;3.72;;;17.90;47.20;;;;;;5092869;28;20199;-42
2022/07/09 02:17:10;;;;;;;5.30;3.78;;;17.90;47.10;;;;;;5092711;28;20242;-42
2022/07/09 02:19:36;;;;;;;8.70;3.78;;;17.90;47.10;;;;;;5092513;28;20192;-44
2022/07/09 02:22:02;;;;;;;6.67;3.77;;;17.90;47.30;;;;;;5092861;28;20240;-42
2022/07/09 02:24:28;;;;;;;5.13;4.07;;;17.90;47.20;;;;;;5092776;28;20270;-43
2022/07/09 02:26:54;;;;;;;4.40;3.70;;;17.90;47.10;;;;;;5091896;28;20401;-43
2022/07/09 02:29:20;;;;;;;4.35;3.67;;;17.90;47.10;;;;;;5092673;28;20416;-42
2022/07/09 02:31:46;;;;;;;5.33;4.53;;;17.90;47.40;;;;;;5092786;28;20176;-41
2022/07/09 02:34:11;;;;;;;4.97;4.27;;;17.80;47.10;;;;;;5092498;28;20667;-42
2022/07/09 02:36:37;;;;;;;4.87;3.90;;;17.80;47.10;;;;;;5092460;28;20414;-43
2022/07/09 02:39:03;;;;;;;5.33;3.70;;;17.80;47.10;;;;;;5092261;28;20262;-43
2022/07/09 02:41:29;;;;;;;4.70;4.00;;;17.80;47.10;;;;;;5092259;28;20188;-42
2022/07/09 02:43:55;;;;;;;5.37;4.37;;;17.80;47.30;;;;;;5092378;28;20429;-42
2022/07/09 02:46:20;;;;;;;4.70;3.80;;;17.70;47.30;;;;;;5092109;28;20452;-43
2022/07/09 02:48:46;;;;;;;5.53;5.03;;;17.70;47.50;;;;;;5092356;28;20183;-42
2022/07/09 02:51:12;;;;;;;4.50;4.10;;;17.70;47.60;;;;;;5092210;28;20196;-43
2022/07/09 02:53:38;;;;;;;5.30;4.80;;;17.70;47.40;;;;;;5092360;28;20598;-42
2022/07/09 02:56:04;;;;;;;4.27;3.87;;;17.70;47.30;;;;;;5091898;28;20315;-42
2022/07/09 02:58:31;;;;;;;5.38;3.88;;;17.70;47.60;;;;;;5092090;28;20406;-42
2022/07/09 03:00:57;;;;;;;5.40;4.90;;;17.70;47.30;;;;;;5091908;28;20223;-43
2022/07/09 03:03:26;;;;;;;3.83;3.43;;;17.70;47.20;;;;;;5092423;28;20240;-42
2022/07/09 03:05:52;;;;;;;5.25;3.90;;;17.70;47.30;;;;;;5101487;22;20168;-43
2022/07/09 03:08:21;;;;;;;6.97;3.70;;;17.70;47.20;;;;;;5112146;28;20654;-45
2022/07/09 03:10:49;;;;;;;10.60;4.13;;;17.60;47.10;;;;;;5112473;28;20179;-45
2022/07/09 03:13:15;;;;;;;4.95;3.92;;;17.60;47.20;;;;;;5112493;28;20171;-47
2022/07/09 03:15:40;;;;;;;4.15;3.75;;;17.60;47.20;;;;;;5112102;28;20289;-45
2022/07/09 03:18:09;;;;;;;7.10;4.03;;;17.60;47.30;;;;;;5112300;28;20195;-46
2022/07/09 03:20:38;;;;;;;6.45;4.07;;;17.50;47.40;;;;;;5112497;28;20179;-44
2022/07/09 03:23:05;;;;;;;3.97;3.67;;;17.50;47.20;;;;;;5112224;28;20171;-45
2022/07/09 03:25:30;;;;;;;5.25;3.40;;;17.50;47.10;;;;;;5112269;28;20171;-45
2022/07/09 03:27:56;;;;;;;5.53;4.50;;;17.50;47.10;;;;;;5112133;28;20602;-46
2022/07/09 03:30:23;;;;;;;4.07;3.30;;;17.40;46.80;;;;;;5112159;28;20416;-46
2022/07/09 03:32:49;;;;;;;4.07;3.38;;;17.40;46.80;;;;;;5112141;28;20163;-45
2022/07/09 03:35:15;;;;;;;4.85;4.30;;;17.40;46.90;;;;;;5112001;28;20658;-46
2022/07/09 03:37:41;;;;;;;4.25;3.67;;;17.40;46.90;;;;;;5112685;28;20175;-46
2022/07/09 03:40:08;;;;;;;4.60;3.63;;;17.30;47.10;;;;;;5116014;28;20661;-46
2022/07/09 03:42:34;;;;;;;5.85;4.40;;;17.30;47.10;;;;;;5115896;28;20898;-44
2022/07/09 03:44:59;;;;;;;4.60;3.60;;;17.30;47.50;;;;;;5115990;28;20179;-44
2022/07/09 03:47:25;;;;;;;3.80;3.17;;;17.30;47.40;;;;;;5115569;28;20507;-45
2022/07/09 03:49:51;;;;;;;3.53;3.10;;;17.40;47.50;;;;;;5115780;28;20172;-44
2022/07/09 03:52:17;;;;;;;4.50;3.83;;;17.40;47.60;;;;;;5116087;27;20189;-46
2022/07/09 03:54:43;;;;;;;5.30;4.80;;;17.40;47.50;;;;;;5115702;28;20202;-45
2022/07/09 03:57:09;;;;;;;4.40;3.95;;;17.40;47.60;;;;;;5114177;28;20958;-45
2022/07/09 03:59:36;;;;;;;4.50;3.63;;;18.60;48.10;;;;;;5115934;27;20178;-46
2022/07/09 04:02:03;;;;;;;5.30;4.80;;;17.50;47.70;;;;;;5115591;28;20167;-46
2022/07/09 04:04:28;;;;;;;4.82;3.85;;;17.50;47.80;;;;;;5115678;28;20179;-45
2022/07/09 04:06:55;;;;;;;4.27;3.87;;;17.60;48.10;;;;;;5115080;28;20229;-44
2022/07/09 04:09:21;;;;;;;4.65;3.88;;;17.60;48.00;;;;;;5115468;28;20179;-45
2022/07/09 04:11:47;;;;;;;3.90;3.47;;;17.70;48.20;;;;;;5115499;28;20182;-46
2022/07/09 04:14:14;;;;;;;6.33;4.33;;;17.80;48.40;;;;;;5115279;28;20187;-46
2022/07/09 04:16:40;;;;;;;4.55;4.13;;;17.90;48.30;;;;;;5114962;28;20207;-47
2022/07/09 04:19:07;;;;;;;4.05;3.60;;;18.00;48.30;;;;;;5115274;28;20662;-46
2022/07/09 04:21:33;;;;;;;5.55;4.80;;;18.00;48.50;;;;;;5115397;28;20178;-46
2022/07/09 04:23:58;;;;;;;5.97;4.60;;;18.10;48.60;;;;;;5115186;28;20167;-45
2022/07/09 04:26:24;;;;;;;4.13;3.50;;;18.20;48.50;;;;;;5114865;28;20523;-45
2022/07/09 04:28:50;;;;;;;4.67;3.47;;;18.30;48.30;;;;;;5115337;28;20175;-46
2022/07/09 04:31:18;;;;;;;3.80;3.40;;;18.40;48.40;;;;;;5114992;27;20171;-46
2022/07/09 04:33:44;;;;;;;9.90;4.25;;;18.50;48.30;;;;;;5115112;28;20210;-45
2022/07/09 04:36:10;;;;;;;4.47;4.07;;;18.60;48.30;;;;;;5114720;28;20222;-46
2022/07/09 04:38:37;;;;;;;5.28;3.28;;;18.60;48.30;;;;;;5115158;28;20195;-46
2022/07/09 04:41:04;;;;;;;4.77;4.37;;;18.60;48.30;;;;;;5114948;27;20186;-45
2022/07/09 04:43:30;;;;;;;4.20;3.80;;;18.70;48.40;;;;;;5114816;28;20167;-45
2022/07/09 04:45:56;;;;;;;3.28;2.90;;;18.80;48.40;;;;;;5114490;28;20286;-47
2022/07/09 04:48:22;;;;;;;4.00;3.23;;;18.80;48.40;;;;;;5114903;28;20202;-46
2022/07/09 04:50:48;;;;;;;4.90;4.03;;;18.80;48.30;;;;;;5113870;28;20293;-46
2022/07/09 04:53:14;;;;;;;4.22;3.83;;;18.90;48.40;;;;;;5114621;28;20163;-46
2022/07/09 04:55:40;;;;;;;6.33;4.10;;;19.00;48.30;;;;;;5114191;28;20693;-44
2022/07/09 04:58:06;;;;;;;5.20;4.67;;;19.10;48.40;;;;;;5114654;28;20448;-43
2022/07/09 05:00:33;;;;;;;4.37;3.87;;;19.20;48.50;;;;;;5114461;28;20412;-44
2022/07/09 05:02:59;;;;;;;4.57;4.03;;;19.30;48.70;;;;;;5114600;28;20171;-44
2022/07/09 05:05:25;;;;;;;5.17;3.33;;;19.30;48.70;;;;;;5114546;28;20185;-43
2022/07/09 05:07:52;;;;;;;6.70;3.65;;;19.40;48.70;;;;;;5113996;28;20445;-44
2022/07/09 05:10:18;;;;;;;8.73;3.90;;;19.50;48.80;;;;;;5114314;28;20186;-44
2022/07/09 05:12:44;;;;;;;4.05;3.65;;;19.60;48.90;;;;;;5114206;28;20198;-44
2022/07/09 05:15:10;;;;;;;4.33;3.93;;;19.70;48.70;;;;;;5114101;28;20737;-44
2022/07/09 05:17:37;;;;;;;4.65;3.30;;;19.70;48.60;;;;;;5113909;28;20183;-44
2022/07/09 05:20:04;;;;;;;4.32;3.05;;;19.80;49.00;;;;;;5114201;27;20187;-44
2022/07/09 05:22:34;;;;;;;3.78;3.38;;;19.80;48.80;;;;;;5114069;28;20160;-44
2022/07/09 05:25:01;;;;;;;7.60;4.85;;;19.90;49.00;;;;;;5113972;28;20708;-43
2022/07/09 05:27:28;;;;;;;3.60;2.90;;;20.00;48.90;;;;;;5113705;28;20222;-44
2022/07/09 05:29:54;;;;;;;4.13;3.20;;;20.00;48.80;;;;;;5114122;28;20247;-43
2022/07/09 05:32:20;;;;;;;5.57;3.30;;;20.10;48.70;;;;;;5113873;28;20247;-43
2022/07/09 05:34:45;;;;;;;5.90;3.93;;;20.20;48.70;;;;;;5113787;28;20740;-43
2022/07/09 05:37:11;;;;;;;5.30;4.30;;;20.30;49.00;;;;;;5113573;28;20818;-44
2022/07/09 05:39:38;;;;;;;5.83;3.33;;;20.30;49.00;;;;;;5113834;27;20405;-44
2022/07/09 05:42:04;;;;;;;3.95;3.22;;;20.40;48.90;;;;;;5113577;28;20998;-44
2022/07/09 05:44:30;;;;;;;5.75;3.15;;;20.40;49.00;;;;;;5113576;28;20512;-44
2022/07/09 05:46:56;;;;;;;7.15;3.13;;;20.50;48.90;;;;;;5113239;28;20187;-44
2022/07/09 05:49:22;;;;;;;3.23;2.20;;;20.60;48.80;;;;;;5113532;28;20228;-45
2022/07/09 05:51:48;;;;;;;3.13;2.60;;;20.60;48.70;;;;;;5113536;28;20405;-44
2022/07/09 05:54:14;;;;;;;4.90;2.93;;;20.70;49.00;;;;;;5113424;28;20899;-44
2022/07/09 05:56:41;;;;;;;3.70;2.53;;;20.80;48.60;;;;;;5113088;28;20181;-44
2022/07/09 05:59:07;;;;;;;2.75;2.45;;;20.80;48.50;;;;;;5113345;28;20168;-45
2022/07/09 06:01:38;;;;;;;3.67;2.30;;;20.90;48.50;;;;;;5113075;28;20171;-44
2022/07/09 06:04:04;;;;;;;11.73;2.63;;;21.00;48.50;;;;;;5113409;28;20727;-44
2022/07/09 06:06:30;;;;;;;4.28;2.40;;;21.10;48.30;;;;;;5112814;28;20232;-44
2022/07/09 06:08:56;;;;;;;2.90;2.23;;;21.10;48.10;;;;;;5113122;28;20175;-44
2022/07/09 06:11:22;;;;;;;7.40;3.23;;;21.10;47.90;;;;;;5113039;28;20432;-44
2022/07/09 06:13:48;;;;;;;6.10;2.70;;;21.20;47.90;;;;;;5113291;28;20199;-44
2022/07/09 06:16:14;;;;;;;3.10;2.57;;;21.20;47.80;;;;;;5112721;28;20448;-44
2022/07/09 06:18:39;;;;;;;4.50;2.57;;;21.30;47.90;;;;;;5113031;28;20166;-44
2022/07/09 06:21:05;;;;;;;4.73;2.87;;;21.30;47.80;;;;;;5112940;28;20424;-44
2022/07/09 06:23:31;;;;;;;3.10;2.47;;;21.50;47.80;;;;;;5112994;28;20230;-44
2022/07/09 06:25:57;;;;;;;9.37;3.50;;;21.50;47.70;;;;;;5112502;28;20194;-44
2022/07/09 06:28:22;;;;;;;3.10;2.40;;;21.60;47.60;;;;;;5112891;27;20163;-45
2022/07/09 06:30:48;;;;;;;5.43;2.93;;;21.60;47.70;;;;;;5112699;28;20171;-43
2022/07/09 06:33:14;;;;;;;9.70;3.90;;;21.70;47.40;;;;;;5112808;28;20168;-45
2022/07/09 06:35:39;;;;;;;3.83;3.43;;;21.70;47.30;;;;;;5112367;28;20202;-44
2022/07/09 06:38:05;;;;;;;6.00;2.37;;;21.60;47.10;;;;;;5112654;28;20367;-44
2022/07/09 06:40:31;;;;;;;4.20;2.80;;;21.60;47.00;;;;;;5112621;28;20178;-44
2022/07/09 06:42:57;;;;;;;4.97;3.20;;;21.70;47.20;;;;;;5112934;28;20177;-43
2022/07/09 06:45:23;;;;;;;3.50;2.67;;;21.70;47.30;;;;;;5112739;28;20175;-44
2022/07/09 06:47:48;;;;;;;4.03;2.47;;;21.70;47.00;;;;;;5112314;28;20191;-44
2022/07/09 06:50:15;;;;;;;5.93;2.73;;;21.70;47.10;;;;;;5112618;28;20166;-44
2022/07/09 06:52:40;;;;;;;5.67;3.60;;;21.60;47.10;;;;;;5112822;28;20173;-44
2022/07/09 06:55:07;;;;;;;5.47;3.20;;;21.60;46.90;;;;;;5112382;28;20951;-44
2022/07/09 06:57:32;;;;;;;4.05;3.10;;;21.70;47.00;;;;;;5112482;28;20202;-44
2022/07/09 06:59:58;;;;;;;3.33;2.73;;;21.60;46.80;;;;;;5112384;28;20175;-45
2022/07/09 07:02:24;;;;;;;3.07;2.77;;;21.60;46.90;;;;;;5112675;28;20171;-44
2022/07/09 07:04:50;;;;;;;4.43;3.53;;;21.60;47.00;;;;;;5112438;28;20206;-45
2022/07/09 07:07:16;;;;;;;3.53;2.40;;;21.60;47.00;;;;;;5111975;28;20697;-44
2022/07/09 07:09:42;;;;;;;4.75;2.45;;;21.70;47.30;;;;;;5112433;28;20198;-44
2022/07/09 07:12:07;;;;;;;4.77;2.47;;;21.70;47.00;;;;;;5112370;28;20666;-45
2022/07/09 07:14:33;;;;;;;3.70;2.90;;;21.80;46.90;;;;;;5116486;28;20715;-44
2022/07/09 07:16:59;;;;;;;4.83;2.77;;;21.90;47.00;;;;;;5116219;28;20532;-45
2022/07/09 07:19:25;;;;;;;4.20;2.90;;;21.90;46.90;;;;;;5116603;28;20216;-44
2022/07/09 07:21:50;;;;;;;4.77;2.90;;;22.00;47.10;;;;;;5116409;28;20167;-45
2022/07/09 07:24:16;;;;;;;4.40;3.00;;;22.10;46.60;;;;;;5116368;28;20246;-44
2022/07/09 07:26:42;;;;;;;6.30;3.10;;;22.20;46.50;;;;;;5115987;28;20195;-44
2022/07/09 07:29:08;;;;;;;4.57;3.40;;;22.30;46.30;;;;;;5116402;28;20170;-45
2022/07/09 07:31:34;;;;;;;4.30;3.00;;;22.30;46.30;;;;;;5116233;28;20262;-45
2022/07/09 07:34:00;;;;;;;4.57;2.77;;;22.40;46.30;;;;;;5116153;27;20448;-44
2022/07/09 07:36:26;;;;;;;4.43;2.40;;;22.50;46.00;;;;;;5116093;28;20431;-45
2022/07/09 07:38:53;;;;;;;4.00;2.53;;;22.70;46.00;;;;;;5116024;27;20482;-44
2022/07/09 07:41:19;;;;;;;5.40;3.30;;;22.90;45.10;;;;;;5114743;28;20409;-44
2022/07/09 07:43:45;;;;;;;5.23;2.13;;;22.90;44.90;;;;;;5115884;28;20484;-44
2022/07/09 07:46:11;;;;;;;3.57;2.50;;;23.00;44.00;;;;;;5115931;27;20500;-44
2022/07/09 07:48:37;;;;;;;3.60;2.53;;;22.90;44.10;;;;;;5115788;28;20407;-43
2022/07/09 07:51:04;;;;;;;3.43;1.87;;;22.80;43.90;;;;;;5115855;28;20401;-44
2022/07/09 07:53:33;;;;;;;3.73;2.60;;;22.70;43.60;;;;;;5115755;28;20405;-44
2022/07/09 07:56:04;;;;;;;4.17;2.30;;;22.70;43.70;;;;;;5121254;28;20429;-44
2022/07/09 07:58:30;;;;;;;3.17;2.23;;;22.60;43.80;;;;;;5125002;28;20436;-43
2022/07/09 08:00:56;;;;;;;4.20;2.43;;;22.60;43.80;;;;;;5125006;28;20413;-42
2022/07/09 08:03:22;;;;;;;4.60;2.33;;;22.50;44.30;;;;;;5124993;28;21093;-44
2022/07/09 08:05:48;;;;;;;3.73;2.23;;;22.60;44.60;;;;;;5122837;28;20408;-42
2022/07/09 08:08:13;;;;;;;4.67;2.97;;;22.70;43.90;;;;;;5124743;28;20409;-43
2022/07/09 08:10:39;;;;;;;3.43;2.40;;;22.70;44.20;;;;;;5125216;27;20416;-45
2022/07/09 08:13:08;;;;;;;5.20;2.33;;;22.90;44.50;;;;;;5115998;28;20908;-43
2022/07/09 08:15:37;;;;;;;5.90;2.30;;;23.10;44.60;;;;;;5115534;27;20298;-45
2022/07/09 08:18:03;;;;;;;4.03;2.20;;;23.20;43.30;;;;;;5115334;28;20409;-45
2022/07/09 08:20:29;;;;;;;2.90;2.17;;;23.30;42.70;;;;;;5115176;28;20912;-44
2022/07/09 08:22:54;;;;;;;3.13;2.47;;;23.30;43.50;;;;;;5115239;27;20389;-45
2022/07/09 08:25:20;;;;;;;2.70;2.00;;;23.30;44.10;;;;;;5115395;28;20188;-45
2022/07/09 08:27:48;;;;;;;4.37;2.60;;;23.20;44.30;;;;;;5114751;28;20195;-45
2022/07/09 08:30:14;;;;;;;3.37;2.63;;;23.30;44.50;;;;;;5115341;28;20254;-44
2022/07/09 08:32:40;;;;;;;2.60;2.07;;;23.30;44.40;;;;;;5114974;28;20441;-45
2022/07/09 08:35:07;;;;;;;4.00;2.23;;;23.40;44.10;;;;;;5114772;28;20523;-44
2022/07/09 08:37:32;;;;;;;4.50;2.27;;;23.40;43.90;;;;;;5114640;28;20202;-44
2022/07/09 08:40:00;;;;;;;6.27;2.27;;;23.40;43.60;;;;;;5115191;28;20401;-44
2022/07/09 08:42:26;;;;;;;2.60;2.00;;;23.40;43.60;;;;;;5114804;28;20199;-42
2022/07/09 08:44:54;;;;;;;4.97;2.47;;;23.40;43.40;;;;;;5114774;28;20455;-44
2022/07/09 08:47:21;;;;;;;6.50;2.23;;;23.40;43.20;;;;;;5114670;28;20439;-43
2022/07/09 08:49:48;;;;;;;3.13;2.23;;;23.40;42.80;;;;;;5114778;28;20405;-41
2022/07/09 08:52:15;;;;;;;6.53;2.70;;;23.40;42.90;;;;;;5114891;28;20455;-44
2022/07/09 08:54:44;;;;;;;5.67;2.40;;;23.40;42.80;;;;;;5114817;28;20445;-42
2022/07/09 08:57:10;;;;;;;4.90;2.17;;;23.40;43.30;;;;;;5114141;28;20821;-44
2022/07/09 08:59:35;;;;;;;4.03;2.20;;;23.40;43.00;;;;;;5114570;28;20394;-42
2022/07/09 09:02:12;;;;;;;4.53;2.27;;;23.40;42.70;;;;;;5114438;28;20409;-43
2022/07/09 09:04:40;;;;;;;4.10;2.77;;;23.40;42.40;;;;;;5114643;28;20182;-43
2022/07/09 09:07:13;;;;;;;3.63;1.90;;;23.40;42.50;;;;;;5114068;28;20469;-44
2022/07/09 09:09:39;;;;;;;2.87;2.30;;;23.40;42.20;;;;;;5114378;28;20742;-42
2022/07/09 09:12:05;;;;;;;2.70;2.03;;;23.30;42.40;;;;;;5114287;28;20419;-42
2022/07/09 09:14:31;;;;;;;3.33;2.07;;;23.30;42.50;;;;;;5114103;28;20207;-42
2022/07/09 09:17:09;;;;;;;3.90;1.87;;;23.30;42.90;;;;;;5114127;28;20429;-42
2022/07/09 09:19:35;;;;;;;6.50;2.07;;;23.40;42.80;;;;;;5114096;28;20195;-42
2022/07/09 09:22:01;;;;;;;3.50;2.23;;;23.40;42.00;;;;;;5114058;28;20402;-43
2022/07/09 09:24:29;;;;;;;2.90;1.50;;;23.50;42.20;;;;;;5114060;28;20409;-43
2022/07/09 09:26:59;;;;;;;2.60;2.00;;;23.70;42.50;;;;;;5113849;28;20528;-42
2022/07/09 09:29:26;;;;;;;2.77;1.70;;;23.80;41.00;;;;;;5110816;22;20481;-43
2022/07/09 09:31:52;;;;;;;4.77;2.80;;;23.80;41.40;;;;;;5087680;28;20600;-43
2022/07/09 09:34:19;;;;;;;2.90;2.03;;;23.90;41.50;;;;;;5093427;28;20460;-42
2022/07/09 09:36:46;;;;;;;2.60;1.57;;;23.90;41.40;;;;;;5092611;28;20398;-44
2022/07/09 09:39:15;;;;;;;2.53;1.90;;;23.90;40.60;;;;;;5093453;28;20425;-45
2022/07/09 09:41:43;;;;;;;2.70;1.80;;;23.90;40.90;;;;;;5093224;28;20431;-44
2022/07/09 09:44:15;;;;;;;4.30;2.00;;;23.90;40.70;;;;;;5091871;28;20505;-44
2022/07/09 09:46:42;;;;;;;3.03;1.80;;;23.80;40.60;;;;;;5093143;28;20416;-43
2022/07/09 09:49:10;;;;;;;2.10;1.53;;;23.70;41.10;;;;;;5093036;28;20426;-43
2022/07/09 09:51:50;;;;;;;3.50;2.40;;;23.70;41.00;;;;;;5093024;28;20414;-42
2022/07/09 09:54:17;;;;;;;4.57;3.37;;;23.70;41.20;;;;;;5093224;28;20460;-43
2022/07/09 09:56:43;;;;;;;4.83;2.07;;;23.70;41.30;;;;;;5093014;28;20405;-42
2022/07/09 09:59:11;;;;;;;5.47;2.30;;;23.60;41.00;;;;;;5093076;28;20578;-44
2022/07/09 10:01:39;;;;;;;2.90;2.20;;;23.60;41.10;;;;;;5092881;28;20399;-42
2022/07/09 10:04:05;;;;;;;2.80;1.90;;;23.60;41.20;;;;;;5092763;28;20406;-43
2022/07/09 10:06:33;;;;;;;2.83;2.07;;;23.60;41.00;;;;;;5092658;28;20999;-44
2022/07/09 10:09:01;;;;;;;2.33;1.77;;;23.70;41.00;;;;;;5092713;28;20899;-44
2022/07/09 10:11:38;;;;;;;6.27;2.40;;;23.70;41.40;;;;;;5092774;28;20402;-43
2022/07/09 10:14:04;;;;;;;2.50;1.50;;;23.70;41.00;;;;;;5092626;28;20449;-43
2022/07/09 10:16:37;;;;;;;3.70;1.90;;;23.70;41.00;;;;;;5092421;28;20924;-43
2022/07/09 10:19:04;;;;;;;5.60;2.27;;;23.70;40.70;;;;;;5092599;28;20211;-43
2022/07/09 10:21:38;;;;;;;7.40;2.13;;;23.70;40.90;;;;;;5092589;28;20434;-43
2022/07/09 10:24:05;;;;;;;3.90;2.30;;;23.70;41.00;;;;;;5092560;28;20404;-45
2022/07/09 10:26:44;;;;;;;4.90;1.80;;;23.60;40.90;;;;;;5092350;28;20535;-42
2022/07/09 10:29:27;;;;;;;2.30;1.80;;;23.60;40.80;;;;;;5092121;28;20442;-42
2022/07/09 10:31:57;;;;;;;2.20;1.73;;;23.50;40.90;;;;;;5092523;28;20402;-42
2022/07/09 10:34:32;;;;;;;3.53;2.00;;;23.50;40.70;;;;;;5092284;28;20449;-43
2022/07/09 10:37:02;;;;;;;2.40;1.83;;;23.50;41.00;;;;;;5092419;28;20382;-44
2022/07/09 10:39:29;;;;;;;3.07;1.83;;;23.50;41.40;;;;;;5092088;28;20453;-42
2022/07/09 10:42:02;;;;;;;2.47;2.10;;;23.50;41.30;;;;;;5092266;28;20406;-42
2022/07/09 10:44:39;;;;;;;4.00;2.07;;;23.60;41.50;;;;;;5092222;28;20405;-43
2022/07/09 10:47:06;;;;;;;3.20;2.20;;;23.60;41.50;;;;;;5091239;28;20420;-46
2022/07/09 10:49:36;;;;;;;3.20;2.37;;;23.60;41.50;;;;;;5092054;28;20940;-45
2022/07/09 10:52:03;;;;;;;3.03;2.20;;;23.60;41.80;;;;;;5092241;28;20410;-45
2022/07/09 10:54:29;;;;;;;5.07;1.80;;;23.70;42.30;;;;;;5092027;28;20473;-46
2022/07/09 10:56:56;;;;;;;7.30;2.53;;;23.80;41.90;;;;;;5092801;28;20394;-46
2022/07/09 10:59:23;;;;;;;3.63;1.53;;;23.90;42.00;;;;;;5093455;28;20179;-45
2022/07/09 11:01:50;;;;;;;3.30;2.13;;;24.00;41.50;;;;;;5093667;28;20412;-46
2022/07/09 11:04:26;;;;;;;3.87;2.37;;;24.20;41.80;;;;;;5093449;28;20413;-45
2022/07/09 11:06:52;;;;;;;2.70;1.60;;;24.30;41.30;;;;;;5093247;28;20413;-44
2022/07/09 11:09:18;;;;;;;2.90;1.87;;;24.50;40.90;;;;;;5093827;28;20425;-44
2022/07/09 11:11:46;;;;;;;3.20;2.13;;;24.60;40.70;;;;;;5093585;28;20168;-47
2022/07/09 11:14:13;;;;;;;2.27;1.70;;;24.60;40.40;;;;;;5092515;28;20195;-45
2022/07/09 11:16:38;;;;;;;2.50;1.77;;;24.60;40.50;;;;;;5091741;28;20760;-45
2022/07/09 11:19:18;;;;;;;4.53;1.83;;;24.70;40.70;;;;;;5092048;28;20920;-46
2022/07/09 11:21:45;;;;;;;2.80;1.90;;;24.90;40.00;;;;;;5091933;28;20946;-45
2022/07/09 11:24:19;;;;;;;2.33;1.30;;;24.90;39.30;;;;;;5091889;28;20437;-46
2022/07/09 11:26:45;;;;;;;3.00;1.70;;;24.90;39.60;;;;;;5091614;28;20950;-45
2022/07/09 11:29:11;;;;;;;3.37;1.60;;;24.90;39.50;;;;;;5091547;28;20936;-46
2022/07/09 11:31:45;;;;;;;2.73;1.23;;;25.00;39.00;;;;;;5091996;28;20408;-46
2022/07/09 11:34:11;;;;;;;3.00;1.70;;;25.00;39.40;;;;;;5091992;28;20192;-45
2022/07/09 11:36:38;;;;;;;2.97;1.63;;;25.00;39.20;;;;;;5091568;28;20915;-46
2022/07/09 11:39:04;;;;;;;8.10;2.97;;;25.10;39.20;;;;;;5091612;28;20859;-46
2022/07/09 11:41:43;;;;;;;3.17;1.73;;;25.10;38.80;;;;;;5091695;28;20481;-46
2022/07/09 11:44:09;;;;;;;2.80;1.70;;;25.10;38.70;;;;;;5091678;28;20184;-46
2022/07/09 11:46:37;;;;;;;2.50;1.53;;;25.20;38.30;;;;;;5091566;28;20402;-48
2022/07/09 11:49:13;;;;;;;2.20;1.30;;;25.20;38.30;;;;;;5091489;28;20426;-48
2022/07/09 11:51:39;;;;;;;2.67;1.60;;;25.20;38.00;;;;;;5091616;28;20406;-47
2022/07/09 11:54:05;;;;;;;2.40;1.63;;;25.20;38.70;;;;;;5091421;28;20531;-45
2022/07/09 11:56:45;;;;;;;3.00;1.80;;;25.30;38.20;;;;;;5091538;28;20437;-44
2022/07/09 11:59:11;;;;;;;3.03;1.93;;;25.40;38.30;;;;;;5093014;28;20429;-46
2022/07/09 12:01:38;;;;;;;8.47;1.87;;;25.40;37.50;;;;;;5095228;28;20791;-45
2022/07/09 12:04:05;;;;;;;3.50;1.83;;;25.40;38.00;;;;;;5095140;28;20405;-46
2022/07/09 12:06:31;;;;;;;5.10;2.03;;;25.40;38.40;;;;;;5094957;28;20455;-45
2022/07/09 12:09:07;;;;;;;3.50;1.53;;;25.50;38.50;;;;;;5094847;28;20928;-45
2022/07/09 12:11:32;;;;;;;4.53;2.20;;;25.50;38.20;;;;;;5095320;28;20436;-45
2022/07/09 12:13:58;;;;;;;3.53;1.70;;;25.60;38.00;;;;;;5095195;28;20476;-45
2022/07/09 12:16:24;;;;;;;4.40;2.23;;;25.60;37.90;;;;;;5095033;28;20176;-44
2022/07/09 12:18:50;;;;;;;1.93;1.20;;;25.50;37.70;;;;;;5095115;28;20211;-45
2022/07/09 12:21:15;;;;;;;3.63;2.03;;;25.50;37.80;;;;;;5094752;28;20406;-45
2022/07/09 12:23:41;;;;;;;3.87;1.77;;;25.50;37.90;;;;;;5094657;28;20608;-44
2022/07/09 12:26:07;;;;;;;2.60;1.73;;;25.50;37.80;;;;;;5094472;28;20180;-45
2022/07/09 12:28:33;;;;;;;4.53;1.43;;;25.40;37.90;;;;;;5094719;28;20163;-44
2022/07/09 12:30:58;;;;;;;2.67;1.80;;;25.40;37.60;;;;;;5094960;28;20616;-44
2022/07/09 12:33:24;;;;;;;2.63;1.43;;;25.40;37.80;;;;;;5094571;28;20627;-45
2022/07/09 12:35:50;;;;;;;2.77;1.53;;;25.40;38.20;;;;;;5094149;28;20252;-44
2022/07/09 12:38:16;;;;;;;3.80;1.60;;;25.30;36.80;;;;;;5094468;28;20169;-44
2022/07/09 12:40:41;;;;;;;3.00;1.83;;;25.30;37.50;;;;;;5094641;28;20245;-45
2022/07/09 12:43:07;;;;;;;2.60;1.30;;;25.30;37.90;;;;;;5094366;28;20173;-45
2022/07/09 12:45:33;;;;;;;2.00;1.40;;;25.40;37.80;;;;;;5094212;28;20179;-45